»·PEaware :: N851TB KSNA-KBUR

N851TB :: KSNA-KBUR

FLIGHT INFORMATION

Flight Status: Arrived
Operator: Privately registered:
United States
More flights under this callsign
Pilot: Adam P. (10444)
Aircraft: PIPER PA-32 SARATOGA
(PA32)
More flights by this aircraft type
Origin: KSNA John Wayne-Orange Co
United States
Destination: KBUR Bob Hope-Burbank
United States
More flights between these airports :: More routes between these airports
Route: SLI V23 POPPR SMO125R SMO SMO311R SILEX
File this flight plan on PilotEdge
Remarks: Request I-3 rating
Altitude:
(Current/Filed)
4,000ft
Speed:
(Current/Filed)
150kts
Departed: 08-Aug-17 11:18 AM
Arrived: 08-Aug-17 11:49 AM
Distance/Time
Traveled:
40nm/0:31
Distance/Time
To Go:
Arrived

Flight Plot

Page will automatically refresh every two minutes.


Map Options




Map Legend


Flown Route
Filed Route
Departure Airport
Arrival Airport
Navaid (VOR, NDB)
Fix

Horizontal Profiles

Position Reports

Time Latitude Longitude Heading Altitude Ground
Speed
08-Aug-17 10:57 33.670885 -117.867571 32 60ft 0kts
08-Aug-17 10:58 33.670885 -117.867571 32 60ft 0kts
08-Aug-17 10:59 33.670885 -117.867571 32 60ft 0kts
08-Aug-17 11:00 33.670885 -117.867571 32 60ft 0kts
08-Aug-17 11:01 33.670885 -117.867571 32 60ft 0kts
08-Aug-17 11:02 33.670885 -117.867571 32 60ft 0kts
08-Aug-17 11:03 33.670885 -117.867571 32 60ft 0kts
08-Aug-17 11:04 33.670885 -117.867571 32 60ft 0kts
08-Aug-17 11:05 33.670885 -117.867571 32 60ft 0kts
08-Aug-17 11:06 33.670885 -117.867571 32 60ft 0kts
08-Aug-17 11:07 33.670885 -117.867571 32 60ft 0kts
08-Aug-17 11:08 33.670885 -117.867571 32 60ft 0kts
08-Aug-17 11:09 33.670885 -117.867571 32 60ft 0kts
08-Aug-17 11:10 33.670885 -117.867571 32 60ft 0kts
08-Aug-17 11:11 33.670885 -117.867571 32 60ft 0kts
08-Aug-17 11:12 33.670885 -117.867571 32 60ft 0kts
08-Aug-17 11:13 33.670885 -117.867571 32 60ft 0kts
08-Aug-17 11:14 33.670885 -117.867571 32 60ft 0kts
08-Aug-17 11:15 33.670885 -117.867571 32 60ft 0kts
08-Aug-17 11:16 33.670885 -117.867571 32 60ft 0kts
08-Aug-17 11:17 33.672358 -117.867999 29 59ft 11kts
08-Aug-17 11:18 33.675683 -117.866118 26 60ft 19kts
08-Aug-17 11:19 33.679979 -117.863657 299 60ft 3kts
08-Aug-17 11:20 33.679541 -117.864540 206 59ft 27kts
08-Aug-17 11:21 33.662093 -117.882476 225 765ft 100kts
08-Aug-17 11:22 33.641458 -117.908398 227 1779ft 115kts
08-Aug-17 11:23 33.619565 -117.938948 246 2785ft 127kts
08-Aug-17 11:24 33.629843 -117.976776 333 3776ft 134kts
08-Aug-17 11:25 33.655036 -118.014916 298 4001ft 170kts
08-Aug-17 11:26 33.682187 -118.062638 307 3998ft 168kts
08-Aug-17 11:27 33.711794 -118.103171 311 3999ft 156kts
08-Aug-17 11:28 33.740896 -118.140216 312 3999ft 150kts
08-Aug-17 11:29 33.768795 -118.177186 308 3999ft 148kts
08-Aug-17 11:30 33.794648 -118.215701 309 3998ft 148kts
08-Aug-17 11:31 33.822337 -118.252227 315 3998ft 148kts
08-Aug-17 11:32 33.850434 -118.288758 315 3999ft 150kts
08-Aug-17 11:33 33.880629 -118.323635 318 4000ft 151kts
08-Aug-17 11:34 33.911571 -118.357469 318 4000ft 152kts
08-Aug-17 11:35 33.943125 -118.391675 318 4000ft 153kts
08-Aug-17 11:36 33.974825 -118.425922 316 4000ft 153kts
08-Aug-17 11:37 34.005898 -118.460635 314 3999ft 151kts
08-Aug-17 11:38 34.043719 -118.482627 337 4000ft 152kts
08-Aug-17 11:39 34.083144 -118.500672 337 3999ft 151kts
08-Aug-17 11:40 34.118695 -118.527338 321 3999ft 151kts
08-Aug-17 11:41 34.151841 -118.558219 314 3997ft 153kts
08-Aug-17 11:42 34.156497 -118.607235 276 3999ft 151kts
08-Aug-17 11:43 34.169166 -118.653785 333 3996ft 154kts
08-Aug-17 11:44 34.200163 -118.627098 59 4000ft 150kts
08-Aug-17 11:45 34.211992 -118.584175 114 3872ft 148kts
08-Aug-17 11:46 34.201298 -118.549348 116 3131ft 88kts
08-Aug-17 11:47 34.198145 -118.520074 95 2868ft 100kts
08-Aug-17 11:48 34.197749 -118.484915 87 2698ft 105kts
08-Aug-17 11:49 34.197668 -118.448108 88 2107ft 111kts
08-Aug-17 11:50 34.197823 -118.413073 87 1523ft 89kts
08-Aug-17 11:51 34.197961 -118.381472 88 1050ft 100kts
08-Aug-17 11:52 34.197451 -118.357972 142 781ft 4kts
08-Aug-17 11:53 34.196748 -118.358038 223 780ft 10kts
08-Aug-17 11:54 34.196882 -118.364210 271 781ft 15kts
08-Aug-17 11:55 34.196276 -118.366909 259 780ft 4kts
08-Aug-17 11:56 34.196383 -118.368045 0 781ft 0kts
08-Aug-17 11:57 34.196383 -118.368045 0 781ft 0kts
08-Aug-17 11:58 34.196383 -118.368045 0 781ft 0kts
08-Aug-17 11:59 34.196383 -118.368045 0 781ft 0kts
08-Aug-17 12:00 34.196383 -118.368045 0 781ft 0kts

Navigation Log

Ident Type
1. KSNA Airport
2. SLI Navaid
3. POPPR Fix
4. SMO Navaid
5. SILEX Fix
6. KBUR Airport